x

Boston 16 Nm East Of Boston, Ma (44013) Wave Buoy

10:50 - Wed 29th Jun 2016 All times are EDT. -4 hours from GMT.

  • Sig Wave height 1.3ft
  • Swell Direction
  • Peak Period 9s
  • Average Period 5s
  • Wind
    9mph
  • Sea Temp 62°f
  • Ar Temp 65°f
  • Sea Pressure 1011.8mb
  • Boston 16 Nm East Of Boston, Ma
  • Boston 16 Nm East Of Boston, Ma

More Historic Weather Station data

Upgrade to MSW Pro to gain access to the past 30 days of data for over 8000 Wavebouys and Weather Stations around the globe.

Join Pro

Comparision Forecast

View Surf forecast
   
Qua 06/29 10:50 1.3ft 9s 5s 9
mph
1011.8mb 62f 65f
9:50 1.3ft 8s 5s 4
mph
1011.9mb 62f 66f
8:50 1.3ft 8s 5s 11
mph
1011.8mb 61f 64f
7:50 1.3ft 8s 5s 7 9 mph 1011.9mb 61f 64f
6:50 1.3ft 8s 4s 9
mph
1011.9mb 60f 64f
5:50 1.3ft 8s 4s 16
mph
1011.5mb 61f 64f
3:50 1.3ft 8s 5s 13 16 mph 1011.8mb 59f 64f
2:50 1.3ft 8s 6s 11
mph
1012.3mb 59f 64f
1:50 1.3ft 7s 6s 9 11 mph 1012.8mb 60f 64f
12:50 1.3ft 7s 6s 9
mph
1013mb 60f 63f
Ter 06/28 11:50 1.3ft 8s 5s 7 9 mph 1013.6mb 60f 64f
10:50 1.3ft 8s 5s 9
mph
1013.4mb 60f 64f
9:50 1.3ft 8s 5s 9
mph
1014mb 60f 64f
8:50 1.3ft 8s 5s 7
mph
1013.7mb 60f 64f
7:50 1.3ft 8s 4s 7 9 mph 1013.7mb 60f 64f
6:50 1.6ft 8s 4s 11 16 mph 1013.6mb 61f 65f
5:50 1.6ft 8s 4s 13
mph
1013.4mb 61f 66f
4:50 1.6ft 8s 4s 11 13 mph 1013.7mb 61f 66f
3:50 1.3ft 8s 4s 16 18 mph 1014.1mb 61f 66f
2:50 1.3ft 8s 5s 11 16 mph 1014.6mb 61f 66f
1:50 1.3ft 8s 5s 11 13 mph 1015mb 60f 65f
12:50 1.3ft 8s 5s 11
mph
1015.5mb 60f 64f
11:50 1.3ft 8s 4s 9
mph
1015.9mb 59f 64f
10:50 1.3ft 9s 4s 11 13 mph 1016mb 59f 64f
9:50 1.3ft 8s 4s 11
mph
1016.2mb 60f 63f
8:50 1.3ft 8s 4s 11
mph
1016.2mb 60f 63f
7:50 1.3ft 9s 4s 11
mph
1016.2mb 59f 63f
6:50 1.6ft 8s 4s 11 13 mph 1015.8mb 59f 62f
5:50 1.6ft 7s 4s 11
mph
1015.6mb 59f 62f
4:50 1.6ft 7s 4s 13
mph
1015.5mb 60f 63f
3:50 1.6ft 7s 4s 13 16 mph 1015.5mb 60f 63f
2:50 1.6ft 7s 4s 13 16 mph 1015.9mb 60f 63f
1:50 1.6ft 7s 4s 13
mph
1016.4mb 60f 64f
12:50 1.6ft 7s 4s 11 13 mph 1016.8mb 60f 64f
Seg 06/27 11:50 2ft 8s 4s 11 13 mph 1017.1mb 60f 63f
10:50 2ft 8s 4s 13
mph
1017.2mb 60f 63f
9:50 2.5ft 8s 4s 13 16 mph 1017.2mb 61f 64f
8:50 2ft 8s 4s 13 16 mph 1016.6mb 61f 64f
7:50 2.5ft 8s 4s 16 18 mph 1016.1mb 61f 66f
6:50 2.5ft 8s 4s 18 20 mph 1015.6mb 62f 68f
5:50 2.5ft 8s 4s 20 25 mph 1015.6mb 62f 69f
4:50 2.5ft 8s 4s 16 18 mph 1015.6mb 63f 70f
3:50 2.5ft 8s 4s 16 18 mph 1015.9mb 62f 68f
2:50 2.5ft 8s 4s 18 20 mph 1016.1mb 62f 67f
1:50 2.5ft 8s 4s 16 20 mph 1016.8mb 62f 67f
12:50 2.5ft 8s 5s 13 16 mph 1017.5mb 62f 67f
11:50 2.5ft 8s 5s 11 13 mph 1018.2mb 63f 66f
10:50 2ft 8s 5s 7 9 mph 1018.6mb 62f 66f
9:50 2ft 8s 5s 9 11 mph 1018.8mb 62f 66f
8:50 2ft 8s 4s 9 11 mph 1019.3mb 61f 64f
7:50 2ft 9s 4s 13 16 mph 1019.1mb 61f 63f
6:50 2ft 8s 4s 16 18 mph 1019.1mb 61f 63f
5:50 2ft 8s 4s 13
mph
1019.2mb 61f 62f
4:50 1.6ft 9s 4s 16 18 mph 1019mb 61f 62f
3:50 1.6ft 8s 5s 11 13 mph 1019mb 61f 63f
2:50 1.6ft 7s 5s 9 11 mph 1019mb 62f 63f
1:50 1.6ft 8s 5s 11 13 mph 1019.1mb 62f 63f
12:50 1.6ft 9s 5s 9 11 mph 1019.4mb 62f 63f
Dom 06/26 11:50 2ft 7s 5s 9 11 mph 1019.5mb 62f 64f
10:50 1.6ft 9s 4s 11
mph
1019.8mb 62f 64f
9:50 1.6ft 7s 4s 11
mph
1019.9mb 61f 64f
8:50 1.6ft 8s 4s 9 11 mph 1019.7mb 61f 66f
7:50 1.6ft 8s 4s 11 13 mph 1019.8mb 61f 65f
6:50 2ft 4s 4s 11
mph
1019.8mb 62f 66f
5:50 2.5ft 4s 4s 13 16 mph 1020.2mb 62f 66f
4:50 2.5ft 3s 4s 20 22 mph 1020.5mb 62f 67f
3:50 2ft 8s 4s 20 22 mph 1020.9mb 63f 67f
2:50 1.6ft 8s 4s 16 18 mph 1021.5mb 63f 67f
1:50 1.6ft 8s 4s 16 18 mph 1022mb 64f 66f
12:50 1.6ft 8s 4s 13 16 mph 1022.4mb 64f 66f
11:50 1.3ft 7s 4s 13 16 mph 1023.1mb 63f 64f
10:50 1.3ft 8s 6s 13 16 mph 1023mb 63f 64f
9:50 1.3ft 8s 7s 9
mph
1023.5mb 63f 63f
8:50 1ft 8s 6s 7
mph
1023.6mb 63f 62f
7:50 1ft 9s 6s 9
mph
1023.4mb 63f 62f
6:50 1.3ft 8s 6s 7
mph
1023.1mb 63f 62f
5:50 1.3ft 8s 5s 7
mph
1023.3mb 62f 62f
3:50 1.3ft 8s 5s 9 11 mph 1023.2mb 63f 62f
2:50 1.3ft 8s 5s 9 11 mph 1022.8mb 63f 62f
1:50 1.3ft 8s 5s 9 11 mph 1022.5mb 63f 62f
12:50 1.3ft 8s 5s 9
mph
1022.9mb 63f 63f
Sáb 06/25 11:50 1.3ft 7s 5s 7
mph
1022.9mb 64f 62f
10:50 1.3ft 7s 5s 9 11 mph 1023.1mb 64f 63f
9:50 1.3ft 8s 5s 9 11 mph 1023.2mb 64f 64f
8:50 1.3ft 8s 5s 13 16 mph 1022.3mb 64f 64f
7:50 1.3ft 8s 5s 13 16 mph 1021.8mb 65f 64f
6:50 1.3ft 8s 5s 11 13 mph 1022.1mb 65f 64f
5:50 1.3ft 8s 5s 11
mph
1022.3mb 65f 64f
4:50 1.3ft 9s 5s 9 11 mph 1022.4mb 65f 65f